Time;durP1;ratioP1;P1;durP2;ratioP2;P2;SDS_P1;SDS_P2;PMS_P1;PMS_P2;Temp;Humidity;BMP_temperature;BMP_pressure;BME280_temperature;BME280_humidity;BME280_pressure;Samples;Min_cycle;Max_cycle;Signal;HPM_P1;HPM_P2
2022/03/05 00:01:19;;;;;;;33.55;16.13;;;;;;;-144.65;100.00;64500.88;5090804;28;20028;-75
2022/03/05 00:03:45;;;;;;;33.40;15.65;;;;;;;-144.65;100.00;64500.88;5087143;28;20055;-75
2022/03/05 00:06:11;;;;;;;35.30;16.90;;;;;;;-144.65;100.00;64500.88;5080396;28;20074;-75
2022/03/05 00:08:36;;;;;;;35.78;15.95;;;;;;;-144.65;100.00;64500.88;5080793;28;20036;-75
2022/03/05 00:11:02;;;;;;;31.25;15.40;;;;;;;-144.65;100.00;64500.88;5079205;28;20032;-76
2022/03/05 00:13:27;;;;;;;36.00;15.05;;;;;;;-144.65;100.00;64500.88;5089952;28;20028;-75
2022/03/05 00:15:53;;;;;;;31.20;14.93;;;;;;;-144.65;100.00;64500.88;5091774;28;20031;-75
2022/03/05 00:18:18;;;;;;;31.30;15.20;;;;;;;-144.65;100.00;64500.88;5093143;28;20107;-77
2022/03/05 00:20:45;;;;;;;30.95;14.70;;;;;;;-144.65;100.00;64500.88;5092723;28;20093;-75
2022/03/05 00:23:11;;;;;;;32.72;14.50;;;;;;;-144.65;100.00;64500.88;5091677;28;20039;-75
2022/03/05 00:25:37;;;;;;;32.80;16.05;;;;;;;-144.65;100.00;64500.88;5089059;28;20024;-75
2022/03/05 00:28:03;;;;;;;31.55;15.50;;;;;;;-144.65;100.00;64500.88;5103104;27;20043;-75
2022/03/05 00:30:28;;;;;;;29.08;15.15;;;;;;;-144.65;100.00;64500.88;5091756;28;20028;-75
2022/03/05 00:32:54;;;;;;;38.25;15.25;;;;;;;-144.65;100.00;64500.88;5090496;28;20089;-75
2022/03/05 00:35:19;;;;;;;34.63;14.85;;;;;;;-144.65;100.00;64500.88;5092770;28;20023;-75
2022/03/05 00:37:45;;;;;;;29.98;15.50;;;;;;;-144.65;100.00;64500.88;5091433;28;20028;-75
2022/03/05 00:40:11;;;;;;;32.20;15.57;;;;;;;-144.65;100.00;64500.88;5091214;28;20121;-75
2022/03/05 00:42:36;;;;;;;30.20;15.00;;;;;;;-144.65;100.00;64500.88;5108699;28;20526;-74
2022/03/05 00:45:02;;;;;;;29.90;14.55;;;;;;;-144.65;100.00;64500.88;5108304;28;20052;-75
2022/03/05 00:47:28;;;;;;;34.15;15.27;;;;;;;-144.65;100.00;64500.88;5108175;28;20032;-75
2022/03/05 00:49:53;;;;;;;29.65;15.20;;;;;;;-144.65;100.00;64500.88;5092544;28;20031;-75
2022/03/05 00:52:20;;;;;;;33.35;15.27;;;;;;;-144.65;100.00;64500.88;5090478;28;20047;-75
2022/03/05 00:54:45;;;;;;;35.75;15.88;;;;;;;-144.65;100.00;64500.88;5083673;28;20028;-75
2022/03/05 00:57:11;;;;;;;35.70;15.73;;;;;;;-144.65;100.00;64500.88;5080152;28;20092;-75
2022/03/05 00:59:36;;;;;;;29.75;15.20;;;;;;;-144.65;100.00;64500.88;5083596;28;20077;-76
2022/03/05 01:02:02;;;;;;;35.08;17.27;;;;;;;-144.65;100.00;64500.88;5086893;28;20028;-75
2022/03/05 01:04:28;;;;;;;39.33;19.40;;;;;;;-144.65;100.00;64500.88;5088846;28;20036;-75
2022/03/05 01:06:53;;;;;;;52.63;24.08;;;;;;;-144.65;100.00;64500.88;5084229;28;20103;-74
2022/03/05 01:09:19;;;;;;;43.85;21.60;;;;;;;-144.65;100.00;64500.88;5080748;28;20024;-75
2022/03/05 01:11:44;;;;;;;47.25;21.98;;;;;;;-144.65;100.00;64500.88;5081658;28;20125;-75
2022/03/05 01:14:09;;;;;;;46.03;22.63;;;;;;;-144.65;100.00;64500.88;5061025;28;20055;-75
2022/03/05 01:16:35;;;;;;;43.45;21.17;;;;;;;-144.65;100.00;64500.88;5088368;28;20498;-75
2022/03/05 01:19:01;;;;;;;43.03;20.15;;;;;;;-144.65;100.00;64500.88;5078576;28;20093;-74
2022/03/05 01:21:27;;;;;;;43.53;21.48;;;;;;;-144.65;100.00;64500.88;5080958;28;20115;-74
2022/03/05 01:23:53;;;;;;;44.45;20.63;;;;;;;-144.65;100.00;64500.88;5091852;28;20023;-75
2022/03/05 01:26:19;;;;;;;43.97;19.73;;;;;;;-144.65;100.00;64500.88;5090552;28;20554;-75
2022/03/05 01:28:44;;;;;;;37.28;17.85;;;;;;;-144.65;100.00;64500.88;5090588;28;20032;-74
2022/03/05 01:31:11;;;;;;;38.88;17.48;;;;;;;-144.65;100.00;64500.88;5091705;28;20024;-75
2022/03/05 01:33:36;;;;;;;37.78;17.98;;;;;;;-144.65;100.00;64500.88;5091715;28;20070;-75
2022/03/05 01:36:02;;;;;;;39.33;18.45;;;;;;;-144.65;100.00;64500.88;5091861;28;20070;-74
2022/03/05 01:38:27;;;;;;;38.85;18.38;;;;;;;-144.65;100.00;64500.88;5091438;28;20811;-75
2022/03/05 01:40:53;;;;;;;38.85;17.98;;;;;;;-144.65;100.00;64500.88;5091933;28;20491;-75
2022/03/05 01:43:19;;;;;;;47.78;20.42;;;;;;;-144.65;100.00;64500.88;5092236;28;20016;-76
2022/03/05 01:45:44;;;;;;;40.75;18.92;;;;;;;-144.65;100.00;64500.88;5073536;28;20114;-74
2022/03/05 01:48:10;;;;;;;40.60;17.63;;;;;;;-144.65;100.00;64500.88;5091909;28;20028;-74
2022/03/05 01:50:35;;;;;;;40.50;19.05;;;;;;;-144.65;100.00;64500.88;5092258;28;20020;-75
2022/03/05 01:53:00;;;;;;;39.78;18.20;;;;;;;-144.65;100.00;64500.88;5091290;28;20113;-74
2022/03/05 01:55:26;;;;;;;36.80;17.13;;;;;;;-144.65;100.00;64500.88;5091094;28;20024;-76
2022/03/05 01:57:52;;;;;;;44.95;19.60;;;;;;;-144.65;100.00;64500.88;5092366;28;20028;-74
2022/03/05 02:00:19;;;;;;;40.83;18.38;;;;;;;-144.65;100.00;64500.88;5091617;28;20031;-74
2022/03/05 02:02:45;;;;;;;39.15;16.92;;;;;;;-144.65;100.00;64500.88;5089971;28;20388;-74
2022/03/05 02:05:12;;;;;;;43.10;18.17;;;;;;;-144.65;100.00;64500.88;5091131;28;20020;-74
2022/03/05 02:07:38;;;;;;;40.63;19.05;;;;;;;-144.65;100.00;64500.88;5091220;28;20163;-74
2022/03/05 02:10:05;;;;;;;38.10;17.95;;;;;;;-144.65;100.00;64500.88;5091597;28;20111;-75
2022/03/05 02:12:33;;;;;;;39.33;19.02;;;;;;;-144.65;100.00;64500.88;5092716;28;20021;-75
2022/03/05 02:15:00;;;;;;;39.53;18.35;;;;;;;-144.65;100.00;64500.88;5090775;28;20024;-76
2022/03/05 02:17:27;;;;;;;35.25;16.30;;;;;;;-144.65;100.00;64500.88;5091144;28;20047;-77
2022/03/05 02:19:53;;;;;;;35.30;16.30;;;;;;;-144.65;100.00;64500.88;5091075;28;20028;-75
2022/03/05 02:22:18;;;;;;;38.80;17.80;;;;;;;-144.65;100.00;64500.88;5090843;28;20398;-75
2022/03/05 02:24:44;;;;;;;38.35;17.42;;;;;;;-144.65;100.00;64500.88;5089618;28;20088;-75
2022/03/05 02:27:10;;;;;;;38.67;17.77;;;;;;;-144.65;100.00;64500.88;5090956;28;20089;-75
2022/03/05 02:29:36;;;;;;;42.17;18.08;;;;;;;-144.65;100.00;64500.88;5091058;28;20472;-75
2022/03/05 02:32:03;;;;;;;34.03;16.77;;;;;;;-144.65;100.00;64500.88;5092201;28;20024;-75
2022/03/05 02:34:29;;;;;;;37.05;17.58;;;;;;;-144.65;100.00;64500.88;5090937;28;20032;-75
2022/03/05 02:36:54;;;;;;;36.88;16.92;;;;;;;-144.65;100.00;64500.88;5090687;28;20122;-75
2022/03/05 02:39:23;;;;;;;39.03;16.88;;;;;;;-144.65;100.00;64500.88;5090780;28;20108;-74
2022/03/05 02:41:49;;;;;;;40.30;17.33;;;;;;;-144.65;100.00;64500.88;5090982;28;20028;-75
2022/03/05 02:44:15;;;;;;;37.85;17.48;;;;;;;-144.65;100.00;64500.88;5090759;28;20173;-75
2022/03/05 02:46:40;;;;;;;37.58;18.42;;;;;;;-144.65;100.00;64500.88;5091689;28;20548;-75
2022/03/05 02:49:06;;;;;;;39.75;17.33;;;;;;;-144.65;100.00;64500.88;5090812;28;20028;-74
2022/03/05 02:51:31;;;;;;;37.33;17.50;;;;;;;-144.65;100.00;64500.88;5090545;28;20036;-75
2022/03/05 02:53:57;;;;;;;39.25;18.48;;;;;;;-144.65;100.00;64500.88;5089013;28;20405;-75
2022/03/05 02:56:22;;;;;;;41.65;17.27;;;;;;;-144.65;100.00;64500.88;5089246;28;20111;-75
2022/03/05 02:58:48;;;;;;;37.20;17.92;;;;;;;-144.65;100.00;64500.88;5089259;28;20108;-75
2022/03/05 03:01:13;;;;;;;35.33;17.73;;;;;;;-144.65;100.00;64500.88;5090498;28;20472;-75
2022/03/05 03:03:39;;;;;;;35.80;17.90;;;;;;;-144.65;100.00;64500.88;5090216;28;20016;-74
2022/03/05 03:06:05;;;;;;;39.38;18.02;;;;;;;-144.65;100.00;64500.88;5088681;28;20032;-75
2022/03/05 03:08:31;;;;;;;39.20;17.67;;;;;;;-144.65;100.00;64500.88;5090461;28;20477;-74
2022/03/05 03:10:57;;;;;;;37.35;18.90;;;;;;;-144.65;100.00;64500.88;5089860;28;20021;-74
2022/03/05 03:13:22;;;;;;;40.60;19.35;;;;;;;-144.65;100.00;64500.88;5090883;28;20366;-74
2022/03/05 03:15:48;;;;;;;41.83;18.52;;;;;;;-144.65;100.00;64500.88;5090351;28;20429;-74
2022/03/05 03:18:16;;;;;;;41.72;19.75;;;;;;;-144.65;100.00;64500.88;5090257;28;20400;-74
2022/03/05 03:20:42;;;;;;;38.95;17.25;;;;;;;-144.65;100.00;64500.88;5088970;28;20445;-75
2022/03/05 03:23:07;;;;;;;40.30;18.98;;;;;;;-144.65;100.00;64500.88;5087093;28;20119;-75
2022/03/05 03:25:33;;;;;;;42.38;19.48;;;;;;;-144.65;100.00;64500.88;5090200;28;20027;-76
2022/03/05 03:27:58;;;;;;;38.40;18.35;;;;;;;-144.65;100.00;64500.88;5106082;28;20465;-75
2022/03/05 03:30:23;;;;;;;38.38;17.85;;;;;;;-144.65;100.00;64500.88;5090048;28;20028;-75
2022/03/05 03:32:49;;;;;;;43.28;17.73;;;;;;;-144.65;100.00;64500.88;5105941;28;20984;-75
2022/03/05 03:35:16;;;;;;;37.38;19.05;;;;;;;-144.65;100.00;64500.88;5099202;28;20123;-74
2022/03/05 03:37:42;;;;;;;47.00;18.85;;;;;;;-144.65;100.00;64500.88;5075702;28;20033;-77
2022/03/05 03:40:10;;;;;;;43.13;19.10;;;;;;;-144.65;100.00;64500.88;5075298;28;20477;-74
2022/03/05 03:42:36;;;;;;;42.67;19.95;;;;;;;-144.65;100.00;64500.88;5093943;28;20032;-74
2022/03/05 03:45:03;;;;;;;42.60;19.45;;;;;;;-144.65;100.00;64500.88;5093630;28;20028;-74
2022/03/05 03:47:29;;;;;;;36.80;19.05;;;;;;;-144.65;100.00;64500.88;5093526;28;20027;-74
2022/03/05 03:49:54;;;;;;;42.88;18.95;;;;;;;-144.65;100.00;64500.88;5109160;28;20028;-74
2022/03/05 03:52:20;;;;;;;41.33;18.45;;;;;;;-144.65;100.00;64500.88;5090941;28;20075;-74
2022/03/05 03:54:47;;;;;;;50.10;18.63;;;;;;;-144.65;100.00;64500.88;5072985;28;20021;-74
2022/03/05 03:57:13;;;;;;;44.58;20.77;;;;;;;-144.65;100.00;64500.88;5071772;28;20530;-74
2022/03/05 03:59:38;;;;;;;43.97;20.67;;;;;;;-144.65;100.00;64500.88;5073208;28;20033;-74
2022/03/05 04:02:04;;;;;;;48.92;19.15;;;;;;;-144.65;100.00;64500.88;5072993;28;20063;-74
2022/03/05 04:04:31;;;;;;;43.80;19.73;;;;;;;-144.65;100.00;64500.88;5073213;28;20025;-74
2022/03/05 04:09:40;;;;;;;41.80;18.55;;;;;;;-144.65;100.00;64500.88;5073062;28;20119;-75
2022/03/05 04:12:06;;;;;;;42.85;19.20;;;;;;;-144.65;100.00;64500.88;5073352;28;20405;-75
2022/03/05 04:14:32;;;;;;;38.10;18.42;;;;;;;-144.65;100.00;64500.88;5072766;28;20028;-75
2022/03/05 04:16:57;;;;;;;40.30;17.45;;;;;;;-144.65;100.00;64500.88;5072801;28;20480;-74
2022/03/05 04:19:23;;;;;;;42.15;18.27;;;;;;;-144.65;100.00;64500.88;5071525;28;20137;-74
2022/03/05 04:21:48;;;;;;;42.80;19.13;;;;;;;-144.65;100.00;64500.88;5073758;28;20028;-74
2022/03/05 04:24:14;;;;;;;38.60;18.00;;;;;;;-144.65;100.00;64500.88;5072644;28;20031;-75
2022/03/05 04:26:39;;;;;;;39.92;18.02;;;;;;;-144.65;100.00;64500.88;5072781;28;20111;-74
2022/03/05 04:29:04;;;;;;;43.58;18.50;;;;;;;-144.65;100.00;64500.88;5076704;28;20020;-75
2022/03/05 04:31:30;;;;;;;41.00;18.30;;;;;;;-144.65;100.00;64500.88;5092931;28;20020;-75
2022/03/05 04:33:56;;;;;;;44.95;19.52;;;;;;;-144.65;100.00;64500.88;5092874;28;20109;-74
2022/03/05 04:36:22;;;;;;;49.95;21.75;;;;;;;-144.65;100.00;64500.88;5094184;28;20045;-77
2022/03/05 04:38:47;;;;;;;38.63;17.13;;;;;;;-144.65;100.00;64500.88;5110893;28;20035;-75
2022/03/05 04:41:13;;;;;;;41.88;17.80;;;;;;;-144.65;100.00;64500.88;5091673;28;20095;-74
2022/03/05 04:43:39;;;;;;;44.92;18.98;;;;;;;-144.65;100.00;64500.88;5092988;28;20032;-74
2022/03/05 04:46:04;;;;;;;42.40;17.48;;;;;;;-144.65;100.00;64500.88;5092440;28;20016;-75
2022/03/05 04:48:29;;;;;;;39.88;17.55;;;;;;;-144.65;100.00;64500.88;5106667;28;20040;-74
2022/03/05 04:50:55;;;;;;;40.45;17.27;;;;;;;-144.65;100.00;64500.88;5092088;28;20086;-74
2022/03/05 04:53:21;;;;;;;42.03;18.67;;;;;;;-144.65;100.00;64500.88;5092054;28;20076;-74
2022/03/05 04:55:48;;;;;;;37.83;17.10;;;;;;;-144.65;100.00;64500.88;5091911;28;20487;-75
2022/03/05 04:58:13;;;;;;;35.92;17.52;;;;;;;-144.65;100.00;64500.88;5090968;28;20027;-75
2022/03/05 05:00:39;;;;;;;41.70;17.40;;;;;;;-144.65;100.00;64500.88;5091226;28;20114;-75
2022/03/05 05:03:04;;;;;;;41.88;17.92;;;;;;;-144.65;100.00;64500.88;5092744;28;20036;-74
2022/03/05 05:05:30;;;;;;;42.53;17.85;;;;;;;-144.65;100.00;64500.88;5091279;28;20073;-74
2022/03/05 05:07:55;;;;;;;36.53;17.98;;;;;;;-144.65;100.00;64500.88;5092086;28;20028;-75
2022/03/05 05:10:21;;;;;;;35.33;17.33;;;;;;;-144.65;100.00;64500.88;5091951;28;20057;-74
2022/03/05 05:12:46;;;;;;;38.90;18.10;;;;;;;-144.65;100.00;64500.88;5092286;28;20073;-74
2022/03/05 05:15:12;;;;;;;46.20;18.90;;;;;;;-144.65;100.00;64500.88;5090949;28;20024;-74
2022/03/05 05:17:38;;;;;;;41.30;19.40;;;;;;;-144.65;100.00;64500.88;5092869;28;20032;-74
2022/03/05 05:20:08;;;;;;;37.08;16.77;;;;;;;-144.65;100.00;64500.88;5107486;28;20102;-75
2022/03/05 05:22:34;;;;;;;39.13;17.40;;;;;;;-144.65;100.00;64500.88;5091947;28;20046;-75
2022/03/05 05:25:00;;;;;;;42.47;19.00;;;;;;;-144.65;100.00;64500.88;5090411;28;20020;-75
2022/03/05 05:27:26;;;;;;;44.20;20.42;;;;;;;-144.65;100.00;64500.88;5084126;28;20033;-74
2022/03/05 05:29:54;;;;;;;54.50;24.35;;;;;;;-144.65;100.00;64500.88;5073051;28;20543;-74
2022/03/05 05:32:19;;;;;;;64.65;28.65;;;;;;;-144.65;100.00;64500.88;5070938;28;20071;-74
2022/03/05 05:34:45;;;;;;;103.25;40.78;;;;;;;-144.65;100.00;64500.88;5070857;28;20060;-74
2022/03/05 05:37:10;;;;;;;107.55;40.47;;;;;;;-144.65;100.00;64500.88;5069509;28;20021;-74
2022/03/05 05:39:36;;;;;;;83.68;34.70;;;;;;;-144.65;100.00;64500.88;5071077;28;20021;-74
2022/03/05 05:42:02;;;;;;;55.67;24.67;;;;;;;-144.65;100.00;64500.88;5070955;28;20105;-74
2022/03/05 05:44:28;;;;;;;67.88;29.70;;;;;;;-144.65;100.00;64500.88;5071762;28;20041;-74
2022/03/05 05:46:53;;;;;;;94.85;37.42;;;;;;;-144.65;100.00;64500.88;5091545;28;20074;-74
2022/03/05 05:49:19;;;;;;;71.30;29.77;;;;;;;-144.65;100.00;64500.88;5107661;28;20028;-74
2022/03/05 05:51:44;;;;;;;75.75;31.35;;;;;;;-144.65;100.00;64500.88;5106776;28;20124;-74
2022/03/05 05:54:10;;;;;;;76.18;30.85;;;;;;;-144.65;100.00;64500.88;5090740;28;20036;-74
2022/03/05 05:56:35;;;;;;;82.68;31.65;;;;;;;-144.65;100.00;64500.88;5091302;28;20505;-74
2022/03/05 05:59:01;;;;;;;80.22;31.63;;;;;;;-144.65;100.00;64500.88;5091013;28;20032;-74
2022/03/05 06:01:26;;;;;;;91.22;39.08;;;;;;;-144.65;100.00;64500.88;5090639;28;20024;-74
2022/03/05 06:03:53;;;;;;;66.43;27.10;;;;;;;-144.65;100.00;64500.88;5090929;28;20110;-74
2022/03/05 06:06:19;;;;;;;49.72;21.70;;;;;;;-144.65;100.00;64500.88;5106684;28;20075;-75
2022/03/05 06:08:44;;;;;;;68.43;30.17;;;;;;;-144.65;100.00;64500.88;5090870;28;20024;-74
2022/03/05 06:11:10;;;;;;;57.03;23.98;;;;;;;-144.65;100.00;64500.88;5091509;28;20028;-75
2022/03/05 06:13:36;;;;;;;58.45;23.85;;;;;;;-144.65;100.00;64500.88;5091554;28;20020;-75
2022/03/05 06:16:02;;;;;;;61.00;26.15;;;;;;;-144.65;100.00;64500.88;5090912;28;20035;-75
2022/03/05 06:18:28;;;;;;;50.70;23.58;;;;;;;-144.65;100.00;64500.88;5091009;28;20032;-75
2022/03/05 06:20:53;;;;;;;53.67;22.55;;;;;;;-144.65;100.00;64500.88;5091580;28;20460;-75
2022/03/05 06:23:19;;;;;;;44.25;21.10;;;;;;;-144.65;100.00;64500.88;5071932;28;20033;-73
2022/03/05 06:25:44;;;;;;;47.97;20.08;;;;;;;-144.65;100.00;64500.88;5070554;28;20088;-75
2022/03/05 06:28:10;;;;;;;40.70;19.38;;;;;;;-144.65;100.00;64500.88;5071117;28;20085;-75
2022/03/05 06:30:45;;;;;;;47.75;19.63;;;;;;;-144.65;100.00;64500.88;5069985;28;20408;-74
2022/03/05 06:33:14;;;;;;;39.08;18.35;;;;;;;-144.65;100.00;64500.88;5069179;28;20078;-75
2022/03/05 06:35:39;;;;;;;39.88;18.60;;;;;;;-144.65;100.00;64500.88;5070317;28;20107;-75
2022/03/05 06:38:04;;;;;;;44.70;20.35;;;;;;;-144.65;100.00;64500.88;5069916;28;20182;-75
2022/03/05 06:40:30;;;;;;;39.10;18.73;;;;;;;-144.65;100.00;64500.88;5070139;28;20029;-75
2022/03/05 06:42:55;;;;;;;43.80;18.50;;;;;;;-144.65;100.00;64500.88;5052238;28;20039;-75
2022/03/05 06:45:21;;;;;;;37.72;16.92;;;;;;;-144.65;100.00;64500.88;5070545;28;20085;-75
2022/03/05 06:47:47;;;;;;;35.85;16.85;;;;;;;-144.65;100.00;64500.88;5070083;28;20020;-76
2022/03/05 06:50:13;;;;;;;39.33;17.70;;;;;;;-144.65;100.00;64500.88;5070393;28;20025;-76
2022/03/05 06:52:41;;;;;;;35.65;17.10;;;;;;;-144.65;100.00;64500.88;5070327;28;20155;-76
2022/03/05 06:55:08;;;;;;;36.60;17.50;;;;;;;-144.65;100.00;64500.88;5070087;28;20039;-75
2022/03/05 06:57:34;;;;;;;39.50;16.73;;;;;;;-144.65;100.00;64500.88;5070164;28;20047;-77
2022/03/05 07:00:03;;;;;;;37.55;17.50;;;;;;;-144.65;100.00;64500.88;5072583;28;20029;-77
2022/03/05 07:02:29;;;;;;;38.28;17.65;;;;;;;-144.65;100.00;64500.88;5082512;28;20035;-76
2022/03/05 07:04:54;;;;;;;38.15;16.85;;;;;;;-144.65;100.00;64500.88;5101285;28;20020;-75
2022/03/05 07:07:19;;;;;;;36.63;16.10;;;;;;;-144.65;100.00;64500.88;5080853;28;20044;-75
2022/03/05 07:09:45;;;;;;;30.58;15.57;;;;;;;-144.65;100.00;64500.88;5078465;28;20027;-75
2022/03/05 07:12:10;;;;;;;40.97;16.90;;;;;;;-144.65;100.00;64500.88;5081219;28;20024;-75
2022/03/05 07:14:36;;;;;;;36.22;16.83;;;;;;;-144.65;100.00;64500.88;5081819;28;20023;-75
2022/03/05 07:17:03;;;;;;;37.03;16.73;;;;;;;-144.65;100.00;64500.88;5080673;28;20012;-75
2022/03/05 07:19:28;;;;;;;38.03;18.10;;;;;;;-144.65;100.00;64500.88;5083679;28;20051;-76
2022/03/05 07:21:54;;;;;;;37.90;17.52;;;;;;;-144.65;100.00;64500.88;5088458;28;20461;-76
2022/03/05 07:24:19;;;;;;;35.15;17.00;;;;;;;-144.65;100.00;64500.88;5094138;28;20032;-77
2022/03/05 07:26:45;;;;;;;30.17;16.02;;;;;;;-144.65;100.00;64500.88;5093960;28;20042;-76
2022/03/05 07:29:10;;;;;;;26.48;14.10;;;;;;;-144.65;100.00;64500.88;5091849;28;20016;-76
2022/03/05 07:31:36;;;;;;;29.65;15.35;;;;;;;-144.65;100.00;64500.88;5089141;28;20055;-77
2022/03/05 07:34:01;;;;;;;29.73;15.30;;;;;;;-144.65;100.00;64500.88;5063176;28;20389;-76
2022/03/05 07:36:27;;;;;;;28.13;16.27;;;;;;;-144.65;100.00;64500.88;5081807;28;20069;-76
2022/03/05 07:38:53;;;;;;;36.72;18.42;;;;;;;-144.65;100.00;64500.88;5082645;28;20028;-78
2022/03/05 07:41:18;;;;;;;35.35;17.80;;;;;;;-144.65;100.00;64500.88;5081434;28;20487;-75
2022/03/05 07:43:44;;;;;;;30.77;16.55;;;;;;;-144.65;100.00;64500.88;5084245;28;20020;-76
2022/03/05 07:46:09;;;;;;;35.75;17.88;;;;;;;-144.65;100.00;64500.88;5080067;28;20473;-76
2022/03/05 07:48:35;;;;;;;31.02;16.38;;;;;;;-144.65;100.00;64500.88;5082287;28;20034;-75
2022/03/05 07:51:02;;;;;;;28.95;15.45;;;;;;;-144.65;100.00;64500.88;5081620;28;20031;-76
2022/03/05 07:53:28;;;;;;;31.40;15.68;;;;;;;-144.65;100.00;64500.88;5079762;28;20126;-76
2022/03/05 07:55:54;;;;;;;26.50;14.95;;;;;;;-144.65;100.00;64500.88;5082018;28;20073;-78
2022/03/05 07:58:19;;;;;;;28.85;15.98;;;;;;;-144.65;100.00;64500.88;5083643;28;20024;-76
2022/03/05 08:00:45;;;;;;;35.20;17.15;;;;;;;-144.65;100.00;64500.88;5083480;28;20460;-77
2022/03/05 08:03:11;;;;;;;30.77;15.95;;;;;;;-144.65;100.00;64500.88;5080178;28;20369;-75
2022/03/05 08:05:37;;;;;;;30.98;15.80;;;;;;;-144.65;100.00;64500.88;5082478;28;20078;-75
2022/03/05 08:08:02;;;;;;;30.98;15.10;;;;;;;-144.65;100.00;64500.88;5062837;28;20033;-76
2022/03/05 08:10:28;;;;;;;50.72;25.45;;;;;;;-144.65;100.00;64500.88;5080070;28;20881;-75
2022/03/05 08:12:53;;;;;;;32.60;16.67;;;;;;;-144.65;100.00;64500.88;5087075;28;20035;-74
2022/03/05 08:15:19;;;;;;;235.98;107.50;;;;;;;-144.65;100.00;64500.88;5085304;28;20021;-74
2022/03/05 08:18:03;;;;;;;28.90;14.98;;;;;;;-144.65;100.00;64500.88;5073499;28;20107;-78
2022/03/05 08:20:30;;;;;;;27.38;14.43;;;;;;;-144.65;100.00;64500.88;5090269;28;20020;-74
2022/03/05 08:22:56;;;;;;;27.67;14.40;;;;;;;-144.65;100.00;64500.88;5080342;28;20087;-75
2022/03/05 08:25:23;;;;;;;26.73;14.93;;;;;;;-144.65;100.00;64500.88;5089039;28;20036;-74
2022/03/05 08:27:49;;;;;;;32.65;16.42;;;;;;;-144.65;100.00;64500.88;5084807;28;20040;-75
2022/03/05 08:30:16;;;;;;;31.13;15.73;;;;;;;-144.65;100.00;64500.88;5087937;28;20077;-75
2022/03/05 08:32:41;;;;;;;27.00;14.82;;;;;;;-144.65;100.00;64500.88;5097515;28;20384;-74
2022/03/05 08:35:09;;;;;;;29.65;15.38;;;;;;;-144.65;100.00;64500.88;5098914;28;20026;-82
2022/03/05 08:37:34;;;;;;;30.20;15.50;;;;;;;-144.65;100.00;64500.88;5107164;28;20036;-83
2022/03/05 08:40:01;;;;;;;29.92;15.10;;;;;;;-144.65;100.00;64500.88;5109265;28;20058;-82
2022/03/05 08:42:26;;;;;;;28.17;14.82;;;;;;;-144.65;100.00;64500.88;5099757;28;20489;-76
2022/03/05 08:44:51;;;;;;;29.92;16.15;;;;;;;-144.65;100.00;64500.88;5086781;28;20036;-76
2022/03/05 08:47:17;;;;;;;32.35;16.35;;;;;;;-144.65;100.00;64500.88;5084565;28;20111;-77
2022/03/05 08:49:42;;;;;;;32.03;15.48;;;;;;;-144.65;100.00;64500.88;5083091;28;20047;-76
2022/03/05 08:52:08;;;;;;;34.15;16.25;;;;;;;-144.65;100.00;64500.88;5081418;28;20059;-75
2022/03/05 08:54:34;;;;;;;31.77;16.50;;;;;;;-144.65;100.00;64500.88;5082486;28;20035;-76
2022/03/05 08:56:59;;;;;;;28.80;15.48;;;;;;;-144.65;100.00;64500.88;5083004;28;20037;-76
2022/03/05 08:59:25;;;;;;;29.90;15.52;;;;;;;-144.65;100.00;64500.88;5083942;28;20024;-74
2022/03/05 09:01:50;;;;;;;27.58;14.18;;;;;;;-144.65;100.00;64500.88;5081672;28;20029;-75
2022/03/05 09:04:16;;;;;;;28.55;13.75;;;;;;;-144.65;100.00;64500.88;5077720;28;20028;-75
2022/03/05 09:06:41;;;;;;;24.33;12.70;;;;;;;-144.65;100.00;64500.88;5105066;28;20487;-76
2022/03/05 09:09:07;;;;;;;26.52;13.23;;;;;;;-144.65;100.00;64500.88;5080362;28;20020;-77
2022/03/05 09:11:34;;;;;;;25.33;11.55;;;;;;;-144.65;100.00;64500.88;5084471;28;20115;-74
2022/03/05 09:14:00;;;;;;;19.40;11.55;;;;;;;-144.65;100.00;64500.88;5079432;28;20021;-75
2022/03/05 09:16:25;;;;;;;23.73;11.95;;;;;;;-144.65;100.00;64500.88;5079648;28;20392;-75
2022/03/05 09:18:51;;;;;;;17.55;10.23;;;;;;;-144.65;100.00;64500.88;5079702;28;20025;-75
2022/03/05 09:21:16;;;;;;;19.65;11.05;;;;;;;-144.65;100.00;64500.88;5090558;28;20024;-76
2022/03/05 09:23:42;;;;;;;19.17;10.55;;;;;;;-144.65;100.00;64500.88;5080968;28;20040;-74
2022/03/05 09:26:07;;;;;;;19.10;10.85;;;;;;;-144.65;100.00;64500.88;5079485;28;20477;-74
2022/03/05 09:28:33;;;;;;;19.27;10.32;;;;;;;-144.65;100.00;64500.88;5079735;28;20024;-74
2022/03/05 09:30:58;;;;;;;20.20;9.85;;;;;;;-144.65;100.00;64500.88;5078569;28;20047;-74
2022/03/05 09:33:25;;;;;;;21.67;10.90;;;;;;;-144.65;100.00;64500.88;5078341;28;20105;-75
2022/03/05 09:35:51;;;;;;;19.65;10.38;;;;;;;-144.65;100.00;64500.88;5079832;28;20429;-74
2022/03/05 09:38:17;;;;;;;20.50;10.88;;;;;;;-144.65;100.00;64500.88;5079103;28;20024;-74
2022/03/05 09:40:43;;;;;;;22.02;10.93;;;;;;;-144.65;100.00;64500.88;5080961;28;20033;-75
2022/03/05 09:43:09;;;;;;;21.48;10.18;;;;;;;-144.65;100.00;64500.88;5076395;28;20020;-74
2022/03/05 09:45:34;;;;;;;23.17;10.63;;;;;;;-144.65;100.00;64500.88;5077667;28;20033;-75
2022/03/05 09:48:00;;;;;;;19.77;9.57;;;;;;;-144.65;100.00;64500.88;5082872;28;20043;-76
2022/03/05 09:50:28;;;;;;;18.83;10.07;;;;;;;-144.65;100.00;64500.88;5079190;28;20012;-75
2022/03/05 09:52:58;;;;;;;17.55;9.80;;;;;;;-144.65;100.00;64500.88;5030888;28;1267815;-75
2022/03/05 09:55:24;;;;;;;21.38;10.63;;;;;;;-144.65;100.00;64500.88;5082385;28;20541;-74
2022/03/05 09:57:49;;;;;;;18.15;9.60;;;;;;;-144.65;100.00;64500.88;5080969;28;20028;-75
2022/03/05 10:00:15;;;;;;;22.20;11.45;;;;;;;-144.65;100.00;64500.88;5085486;28;20024;-75
2022/03/05 10:02:41;;;;;;;18.90;10.05;;;;;;;-144.65;100.00;64500.88;5080915;28;20047;-74
2022/03/05 10:05:20;;;;;;;19.40;10.85;;;;;;;-144.65;100.00;64500.88;5082883;28;20109;-75
2022/03/05 10:08:12;;;;;;;20.55;10.30;;;;;;;-144.65;100.00;64500.88;5082135;28;20107;-74
2022/03/05 10:11:01;;;;;;;19.63;10.15;;;;;;;-144.65;100.00;64500.88;5078433;28;20039;-79
2022/03/05 10:13:30;;;;;;;20.80;10.07;;;;;;;-144.65;100.00;64500.88;5070812;28;20021;-78
2022/03/05 10:16:04;;;;;;;16.85;9.25;;;;;;;-144.65;100.00;64500.88;5083063;28;20111;-75
2022/03/05 10:18:34;;;;;;;18.07;8.77;;;;;;;-144.65;100.00;64500.88;5084813;28;20042;-76
2022/03/05 10:21:01;;;;;;;21.88;10.20;;;;;;;-144.65;100.00;64500.88;5083705;28;20391;-76
2022/03/05 10:23:30;;;;;;;18.25;9.02;;;;;;;-144.65;100.00;64500.88;5080935;28;20032;-75
2022/03/05 10:25:56;;;;;;;16.90;9.43;;;;;;;-144.65;100.00;64500.88;5082794;28;20032;-77
2022/03/05 10:28:23;;;;;;;21.42;9.70;;;;;;;-144.65;100.00;64500.88;5075936;28;20024;-77
2022/03/05 10:30:51;;;;;;;19.83;9.15;;;;;;;-144.65;100.00;64500.88;5062437;28;20477;-75
2022/03/05 10:33:33;;;;;;;18.02;9.57;;;;;;;-144.65;100.00;64500.88;5082962;28;20107;-75
2022/03/05 10:36:04;;;;;;;20.77;10.50;;;;;;;-144.65;100.00;64500.88;5075042;28;20081;-76
2022/03/05 10:38:46;;;;;;;20.80;10.10;;;;;;;-144.65;100.00;64500.88;5078841;28;20031;-74
2022/03/05 10:41:14;;;;;;;23.23;10.18;;;;;;;-144.65;100.00;64500.88;5085378;28;20059;-75
2022/03/05 10:43:40;;;;;;;18.00;9.23;;;;;;;-144.65;100.00;64500.88;5069571;28;20412;-76
2022/03/05 10:46:06;;;;;;;19.83;10.57;;;;;;;-144.65;100.00;64500.88;5080408;28;20020;-76
2022/03/05 10:48:40;;;;;;;21.15;10.73;;;;;;;-144.65;100.00;64500.88;5082068;28;20445;-74
2022/03/05 10:51:14;;;;;;;19.10;9.13;;;;;;;-144.65;100.00;64500.88;5078661;28;20024;-74
2022/03/05 10:53:47;;;;;;;20.02;9.95;;;;;;;-144.65;100.00;64500.88;5082797;28;20051;-77